sensor_id;sensor_type;location;lat;lon;timestamp;P1;durP1;ratioP1;P2;durP2;ratioP2
62353;SDS011;48391;49.184;2.418;2023-07-24T00:02:18;1.15;;;1.05;;
62353;SDS011;48391;49.184;2.418;2023-07-24T00:04:44;1.35;;;1.23;;
62353;SDS011;48391;49.184;2.418;2023-07-24T00:07:10;0.73;;;0.73;;
62353;SDS011;48391;49.184;2.418;2023-07-24T00:09:36;0.60;;;0.60;;
62353;SDS011;48391;49.184;2.418;2023-07-24T00:12:02;1.20;;;1.10;;
62353;SDS011;48391;49.184;2.418;2023-07-24T00:14:29;0.80;;;0.80;;
62353;SDS011;48391;49.184;2.418;2023-07-24T00:16:55;1.02;;;0.90;;
62353;SDS011;48391;49.184;2.418;2023-07-24T00:19:21;0.63;;;0.32;;
62353;SDS011;48391;49.184;2.418;2023-07-24T00:21:47;0.85;;;0.85;;
62353;SDS011;48391;49.184;2.418;2023-07-24T00:24:13;1.05;;;0.90;;
62353;SDS011;48391;49.184;2.418;2023-07-24T00:26:39;0.63;;;0.47;;
62353;SDS011;48391;49.184;2.418;2023-07-24T00:29:05;0.82;;;0.75;;
62353;SDS011;48391;49.184;2.418;2023-07-24T00:31:31;0.38;;;0.38;;
62353;SDS011;48391;49.184;2.418;2023-07-24T00:33:57;0.55;;;0.55;;
62353;SDS011;48391;49.184;2.418;2023-07-24T00:36:25;0.75;;;0.57;;
62353;SDS011;48391;49.184;2.418;2023-07-24T00:38:51;0.52;;;0.52;;
62353;SDS011;48391;49.184;2.418;2023-07-24T00:41:17;1.27;;;1.17;;
62353;SDS011;48391;49.184;2.418;2023-07-24T00:43:43;2.05;;;0.73;;
62353;SDS011;48391;49.184;2.418;2023-07-24T05:03:38;5.20;;;2.95;;
62353;SDS011;48391;49.184;2.418;2023-07-24T05:06:05;1.92;;;1.83;;
62353;SDS011;48391;49.184;2.418;2023-07-24T05:08:35;1.50;;;1.40;;
62353;SDS011;48391;49.184;2.418;2023-07-24T05:11:02;1.55;;;1.42;;
62353;SDS011;48391;49.184;2.418;2023-07-24T05:13:29;1.92;;;1.58;;
62353;SDS011;48391;49.184;2.418;2023-07-24T05:15:55;1.08;;;1.08;;
62353;SDS011;48391;49.184;2.418;2023-07-24T05:18:21;1.30;;;1.25;;
62353;SDS011;48391;49.184;2.418;2023-07-24T05:20:47;1.15;;;1.05;;
62353;SDS011;48391;49.184;2.418;2023-07-24T05:23:16;0.82;;;0.82;;
62353;SDS011;48391;49.184;2.418;2023-07-24T05:25:42;1.60;;;1.50;;
62353;SDS011;48391;49.184;2.418;2023-07-24T05:28:09;0.73;;;0.73;;
62353;SDS011;48391;49.184;2.418;2023-07-24T05:30:36;0.98;;;0.98;;
62353;SDS011;48391;49.184;2.418;2023-07-24T05:33:03;1.23;;;0.90;;
62353;SDS011;48391;49.184;2.418;2023-07-24T05:35:33;1.75;;;1.40;;
62353;SDS011;48391;49.184;2.418;2023-07-24T05:38:01;1.30;;;1.20;;
62353;SDS011;48391;49.184;2.418;2023-07-24T05:40:31;1.00;;;0.90;;
62353;SDS011;48391;49.184;2.418;2023-07-24T05:42:59;1.08;;;1.00;;
62353;SDS011;48391;49.184;2.418;2023-07-24T05:45:27;0.70;;;0.70;;
62353;SDS011;48391;49.184;2.418;2023-07-24T05:47:54;1.38;;;1.08;;
62353;SDS011;48391;49.184;2.418;2023-07-24T05:50:20;1.10;;;1.00;;
62353;SDS011;48391;49.184;2.418;2023-07-24T05:52:47;1.98;;;1.08;;
62353;SDS011;48391;49.184;2.418;2023-07-24T05:55:13;0.90;;;0.90;;
62353;SDS011;48391;49.184;2.418;2023-07-24T05:57:40;1.38;;;1.27;;
62353;SDS011;48391;49.184;2.418;2023-07-24T06:00:11;1.38;;;1.13;;
62353;SDS011;48391;49.184;2.418;2023-07-24T06:02:39;1.23;;;1.00;;
62353;SDS011;48391;49.184;2.418;2023-07-24T06:05:06;1.92;;;1.17;;
62353;SDS011;48391;49.184;2.418;2023-07-24T06:07:34;1.90;;;1.27;;
62353;SDS011;48391;49.184;2.418;2023-07-24T06:10:00;1.13;;;0.98;;
62353;SDS011;48391;49.184;2.418;2023-07-24T06:12:28;2.60;;;1.08;;
62353;SDS011;48391;49.184;2.418;2023-07-24T06:14:55;1.10;;;0.80;;
62353;SDS011;48391;49.184;2.418;2023-07-24T06:17:24;1.33;;;0.90;;
62353;SDS011;48391;49.184;2.418;2023-07-24T06:19:51;0.82;;;0.82;;
62353;SDS011;48391;49.184;2.418;2023-07-24T06:22:22;0.82;;;0.82;;
62353;SDS011;48391;49.184;2.418;2023-07-24T06:24:51;0.70;;;0.68;;
62353;SDS011;48391;49.184;2.418;2023-07-24T06:27:18;1.90;;;0.85;;
62353;SDS011;48391;49.184;2.418;2023-07-24T06:29:44;1.50;;;0.60;;
62353;SDS011;48391;49.184;2.418;2023-07-24T06:32:10;0.85;;;0.82;;
62353;SDS011;48391;49.184;2.418;2023-07-24T06:34:37;0.50;;;0.50;;
62353;SDS011;48391;49.184;2.418;2023-07-24T06:37:03;0.95;;;0.85;;
62353;SDS011;48391;49.184;2.418;2023-07-24T06:39:29;0.77;;;0.65;;
62353;SDS011;48391;49.184;2.418;2023-07-24T06:41:56;1.02;;;1.02;;
62353;SDS011;48391;49.184;2.418;2023-07-24T06:44:34;0.90;;;0.68;;
62353;SDS011;48391;49.184;2.418;2023-07-24T06:47:00;0.63;;;0.63;;
62353;SDS011;48391;49.184;2.418;2023-07-24T06:49:26;1.20;;;1.10;;
62353;SDS011;48391;49.184;2.418;2023-07-24T06:51:52;0.73;;;0.73;;
62353;SDS011;48391;49.184;2.418;2023-07-24T06:56:34;0.68;;;0.68;;
62353;SDS011;48391;49.184;2.418;2023-07-24T06:59:00;0.90;;;0.90;;
62353;SDS011;48391;49.184;2.418;2023-07-24T07:01:26;0.98;;;0.95;;
62353;SDS011;48391;49.184;2.418;2023-07-24T07:03:52;0.55;;;0.55;;
62353;SDS011;48391;49.184;2.418;2023-07-24T07:06:19;0.68;;;0.68;;
62353;SDS011;48391;49.184;2.418;2023-07-24T07:08:45;1.30;;;0.90;;
62353;SDS011;48391;49.184;2.418;2023-07-24T07:11:11;1.15;;;0.70;;
62353;SDS011;48391;49.184;2.418;2023-07-24T07:14:34;0.80;;;0.77;;
62353;SDS011;48391;49.184;2.418;2023-07-24T07:17:00;0.45;;;0.40;;
62353;SDS011;48391;49.184;2.418;2023-07-24T07:19:26;0.50;;;0.50;;
62353;SDS011;48391;49.184;2.418;2023-07-24T07:21:53;0.60;;;0.60;;
62353;SDS011;48391;49.184;2.418;2023-07-24T07:24:19;0.65;;;0.43;;
62353;SDS011;48391;49.184;2.418;2023-07-24T07:26:45;0.63;;;0.45;;
62353;SDS011;48391;49.184;2.418;2023-07-24T07:29:11;0.82;;;0.70;;
62353;SDS011;48391;49.184;2.418;2023-07-24T07:31:37;0.95;;;0.90;;
62353;SDS011;48391;49.184;2.418;2023-07-24T07:34:03;1.50;;;0.73;;
62353;SDS011;48391;49.184;2.418;2023-07-24T07:36:30;0.55;;;0.50;;
62353;SDS011;48391;49.184;2.418;2023-07-24T07:38:56;0.75;;;0.65;;
62353;SDS011;48391;49.184;2.418;2023-07-24T07:41:22;1.05;;;0.95;;
62353;SDS011;48391;49.184;2.418;2023-07-24T07:43:48;0.70;;;0.70;;
62353;SDS011;48391;49.184;2.418;2023-07-24T07:46:14;0.50;;;0.50;;
62353;SDS011;48391;49.184;2.418;2023-07-24T07:48:40;1.02;;;0.45;;
62353;SDS011;48391;49.184;2.418;2023-07-24T07:51:06;2.47;;;0.90;;
62353;SDS011;48391;49.184;2.418;2023-07-24T07:53:32;0.93;;;0.90;;
62353;SDS011;48391;49.184;2.418;2023-07-24T07:55:59;1.95;;;0.98;;
62353;SDS011;48391;49.184;2.418;2023-07-24T07:58:25;0.50;;;0.38;;
62353;SDS011;48391;49.184;2.418;2023-07-24T08:00:51;1.67;;;0.70;;
62353;SDS011;48391;49.184;2.418;2023-07-24T08:03:18;0.52;;;0.30;;
62353;SDS011;48391;49.184;2.418;2023-07-24T08:05:44;0.80;;;0.80;;
62353;SDS011;48391;49.184;2.418;2023-07-24T08:08:10;2.65;;;0.85;;
62353;SDS011;48391;49.184;2.418;2023-07-24T08:10:39;0.70;;;0.60;;
62353;SDS011;48391;49.184;2.418;2023-07-24T08:13:06;1.98;;;0.57;;
62353;SDS011;48391;49.184;2.418;2023-07-24T08:15:36;2.38;;;0.50;;
62353;SDS011;48391;49.184;2.418;2023-07-24T08:18:04;1.63;;;1.13;;
62353;SDS011;48391;49.184;2.418;2023-07-24T08:20:44;1.05;;;0.70;;
62353;SDS011;48391;49.184;2.418;2023-07-24T08:23:13;0.77;;;0.77;;
62353;SDS011;48391;49.184;2.418;2023-07-24T08:25:40;0.82;;;0.82;;
62353;SDS011;48391;49.184;2.418;2023-07-24T08:28:20;0.90;;;0.50;;
62353;SDS011;48391;49.184;2.418;2023-07-24T08:30:55;1.17;;;0.90;;
62353;SDS011;48391;49.184;2.418;2023-07-24T08:33:22;0.70;;;0.60;;
62353;SDS011;48391;49.184;2.418;2023-07-24T08:36:06;0.70;;;0.70;;
62353;SDS011;48391;49.184;2.418;2023-07-24T08:38:35;1.73;;;0.60;;
62353;SDS011;48391;49.184;2.418;2023-07-24T08:41:10;1.08;;;0.95;;
62353;SDS011;48391;49.184;2.418;2023-07-24T08:43:39;0.50;;;0.50;;
62353;SDS011;48391;49.184;2.418;2023-07-24T08:46:08;1.63;;;0.60;;
62353;SDS011;48391;49.184;2.418;2023-07-24T08:48:39;1.60;;;1.33;;
62353;SDS011;48391;49.184;2.418;2023-07-24T08:51:08;2.35;;;0.70;;
62353;SDS011;48391;49.184;2.418;2023-07-24T08:53:37;0.60;;;0.60;;
62353;SDS011;48391;49.184;2.418;2023-07-24T08:56:11;0.93;;;0.80;;
62353;SDS011;48391;49.184;2.418;2023-07-24T08:58:50;2.70;;;0.80;;
62353;SDS011;48391;49.184;2.418;2023-07-24T09:02:39;1.25;;;1.00;;
62353;SDS011;48391;49.184;2.418;2023-07-24T09:05:06;1.75;;;0.82;;
62353;SDS011;48391;49.184;2.418;2023-07-24T09:07:33;0.90;;;0.80;;
62353;SDS011;48391;49.184;2.418;2023-07-24T09:11:45;0.85;;;0.80;;
62353;SDS011;48391;49.184;2.418;2023-07-24T09:14:21;2.63;;;1.10;;
62353;SDS011;48391;49.184;2.418;2023-07-24T09:16:48;0.45;;;0.45;;
62353;SDS011;48391;49.184;2.418;2023-07-24T09:19:18;0.47;;;0.47;;
62353;SDS011;48391;49.184;2.418;2023-07-24T09:21:45;0.73;;;0.73;;
62353;SDS011;48391;49.184;2.418;2023-07-24T09:24:12;1.15;;;0.70;;
62353;SDS011;48391;49.184;2.418;2023-07-24T09:26:48;1.30;;;0.68;;
62353;SDS011;48391;49.184;2.418;2023-07-24T09:29:18;0.73;;;0.73;;
62353;SDS011;48391;49.184;2.418;2023-07-24T09:31:45;0.73;;;0.73;;
62353;SDS011;48391;49.184;2.418;2023-07-24T09:34:18;1.45;;;0.70;;
62353;SDS011;48391;49.184;2.418;2023-07-24T09:36:48;1.17;;;0.57;;
62353;SDS011;48391;49.184;2.418;2023-07-24T09:39:22;0.80;;;0.63;;
62353;SDS011;48391;49.184;2.418;2023-07-24T09:41:48;1.90;;;0.55;;
62353;SDS011;48391;49.184;2.418;2023-07-24T09:44:15;1.33;;;0.60;;
62353;SDS011;48391;49.184;2.418;2023-07-24T09:46:42;0.88;;;0.77;;
62353;SDS011;48391;49.184;2.418;2023-07-24T09:49:09;0.50;;;0.50;;
62353;SDS011;48391;49.184;2.418;2023-07-24T09:51:36;1.02;;;0.45;;
62353;SDS011;48391;49.184;2.418;2023-07-24T09:56:30;1.65;;;0.80;;
62353;SDS011;48391;49.184;2.418;2023-07-24T09:58:57;0.82;;;0.82;;
62353;SDS011;48391;49.184;2.418;2023-07-24T10:01:25;2.13;;;0.55;;
62353;SDS011;48391;49.184;2.418;2023-07-24T10:03:52;1.38;;;0.50;;
62353;SDS011;48391;49.184;2.418;2023-07-24T10:06:19;0.30;;;0.30;;
62353;SDS011;48391;49.184;2.418;2023-07-24T10:08:46;0.80;;;0.80;;
62353;SDS011;48391;49.184;2.418;2023-07-24T10:11:14;0.80;;;0.70;;
62353;SDS011;48391;49.184;2.418;2023-07-24T10:13:40;0.77;;;0.40;;
62353;SDS011;48391;49.184;2.418;2023-07-24T10:16:07;0.40;;;0.40;;
62353;SDS011;48391;49.184;2.418;2023-07-24T10:18:34;0.88;;;0.68;;
62353;SDS011;48391;49.184;2.418;2023-07-24T10:21:07;0.68;;;0.68;;
62353;SDS011;48391;49.184;2.418;2023-07-24T10:23:34;0.50;;;0.50;;
62353;SDS011;48391;49.184;2.418;2023-07-24T10:26:04;0.68;;;0.68;;
62353;SDS011;48391;49.184;2.418;2023-07-24T10:28:31;0.60;;;0.60;;
62353;SDS011;48391;49.184;2.418;2023-07-24T10:30:57;0.40;;;0.40;;
62353;SDS011;48391;49.184;2.418;2023-07-24T10:33:23;1.27;;;0.50;;
62353;SDS011;48391;49.184;2.418;2023-07-24T10:35:53;0.65;;;0.47;;
62353;SDS011;48391;49.184;2.418;2023-07-24T10:38:20;1.23;;;0.70;;
62353;SDS011;48391;49.184;2.418;2023-07-24T10:41:01;0.73;;;0.73;;
62353;SDS011;48391;49.184;2.418;2023-07-24T10:43:27;0.60;;;0.32;;
62353;SDS011;48391;49.184;2.418;2023-07-24T10:45:53;1.55;;;1.20;;
62353;SDS011;48391;49.184;2.418;2023-07-24T10:48:20;0.40;;;0.40;;
62353;SDS011;48391;49.184;2.418;2023-07-24T10:50:47;0.40;;;0.40;;
62353;SDS011;48391;49.184;2.418;2023-07-24T10:53:17;0.45;;;0.45;;
62353;SDS011;48391;49.184;2.418;2023-07-24T10:55:43;0.90;;;0.57;;
62353;SDS011;48391;49.184;2.418;2023-07-24T10:58:11;0.63;;;0.28;;
62353;SDS011;48391;49.184;2.418;2023-07-24T11:00:38;1.13;;;0.38;;
62353;SDS011;48391;49.184;2.418;2023-07-24T11:03:04;0.40;;;0.40;;
62353;SDS011;48391;49.184;2.418;2023-07-24T11:05:31;1.75;;;0.70;;
62353;SDS011;48391;49.184;2.418;2023-07-24T11:07:58;0.63;;;0.40;;
62353;SDS011;48391;49.184;2.418;2023-07-24T11:10:24;0.57;;;0.57;;
62353;SDS011;48391;49.184;2.418;2023-07-24T11:12:50;0.40;;;0.40;;
62353;SDS011;48391;49.184;2.418;2023-07-24T11:15:23;0.50;;;0.47;;
62353;SDS011;48391;49.184;2.418;2023-07-24T11:17:49;0.40;;;0.13;;
62353;SDS011;48391;49.184;2.418;2023-07-24T11:20:16;0.57;;;0.57;;
62353;SDS011;48391;49.184;2.418;2023-07-24T11:22:43;0.85;;;0.32;;
62353;SDS011;48391;49.184;2.418;2023-07-24T11:25:10;1.30;;;0.85;;
62353;SDS011;48391;49.184;2.418;2023-07-24T11:27:42;0.40;;;0.40;;
62353;SDS011;48391;49.184;2.418;2023-07-24T11:30:12;0.65;;;0.50;;
62353;SDS011;48391;49.184;2.418;2023-07-24T11:32:41;0.70;;;0.55;;
62353;SDS011;48391;49.184;2.418;2023-07-24T11:35:08;1.50;;;0.57;;
62353;SDS011;48391;49.184;2.418;2023-07-24T11:37:35;0.50;;;0.50;;
62353;SDS011;48391;49.184;2.418;2023-07-24T11:40:02;0.55;;;0.45;;
62353;SDS011;48391;49.184;2.418;2023-07-24T11:42:39;1.40;;;0.70;;
62353;SDS011;48391;49.184;2.418;2023-07-24T11:45:05;0.38;;;0.30;;
62353;SDS011;48391;49.184;2.418;2023-07-24T11:47:40;0.38;;;0.38;;
62353;SDS011;48391;49.184;2.418;2023-07-24T11:50:07;0.45;;;0.45;;
62353;SDS011;48391;49.184;2.418;2023-07-24T11:52:37;0.47;;;0.30;;
62353;SDS011;48391;49.184;2.418;2023-07-24T11:55:08;0.25;;;0.25;;
62353;SDS011;48391;49.184;2.418;2023-07-24T11:57:34;1.02;;;0.30;;
62353;SDS011;48391;49.184;2.418;2023-07-24T12:00:01;0.85;;;0.38;;
62353;SDS011;48391;49.184;2.418;2023-07-24T12:02:27;0.55;;;0.55;;
62353;SDS011;48391;49.184;2.418;2023-07-24T12:04:54;0.68;;;0.68;;
62353;SDS011;48391;49.184;2.418;2023-07-24T12:07:22;0.50;;;0.30;;
62353;SDS011;48391;49.184;2.418;2023-07-24T12:09:52;0.55;;;0.30;;
62353;SDS011;48391;49.184;2.418;2023-07-24T12:12:19;0.90;;;0.30;;
62353;SDS011;48391;49.184;2.418;2023-07-24T12:14:45;0.68;;;0.30;;
62353;SDS011;48391;49.184;2.418;2023-07-24T12:17:17;0.55;;;0.50;;
62353;SDS011;48391;49.184;2.418;2023-07-24T12:19:45;0.40;;;0.40;;
62353;SDS011;48391;49.184;2.418;2023-07-24T12:22:12;0.20;;;0.20;;
62353;SDS011;48391;49.184;2.418;2023-07-24T12:24:38;0.40;;;0.30;;
62353;SDS011;48391;49.184;2.418;2023-07-24T12:27:04;0.43;;;0.40;;
62353;SDS011;48391;49.184;2.418;2023-07-24T12:29:30;0.55;;;0.50;;
62353;SDS011;48391;49.184;2.418;2023-07-24T12:31:56;0.50;;;0.50;;
62353;SDS011;48391;49.184;2.418;2023-07-24T12:34:23;0.82;;;0.38;;
62353;SDS011;48391;49.184;2.418;2023-07-24T12:36:49;0.20;;;0.20;;
62353;SDS011;48391;49.184;2.418;2023-07-24T12:39:16;0.47;;;0.43;;
62353;SDS011;48391;49.184;2.418;2023-07-24T12:41:42;0.45;;;0.45;;
62353;SDS011;48391;49.184;2.418;2023-07-24T12:44:09;1.60;;;0.43;;
62353;SDS011;48391;49.184;2.418;2023-07-24T12:46:35;0.28;;;0.28;;
62353;SDS011;48391;49.184;2.418;2023-07-24T12:49:01;0.95;;;0.70;;
62353;SDS011;48391;49.184;2.418;2023-07-24T12:51:27;1.27;;;0.75;;
62353;SDS011;48391;49.184;2.418;2023-07-24T12:53:53;0.90;;;0.30;;
62353;SDS011;48391;49.184;2.418;2023-07-24T12:56:19;0.65;;;0.65;;
62353;SDS011;48391;49.184;2.418;2023-07-24T12:58:46;0.35;;;0.35;;
62353;SDS011;48391;49.184;2.418;2023-07-24T13:01:12;2.70;;;0.47;;
62353;SDS011;48391;49.184;2.418;2023-07-24T13:03:38;0.50;;;0.43;;
62353;SDS011;48391;49.184;2.418;2023-07-24T13:06:04;0.40;;;0.40;;
62353;SDS011;48391;49.184;2.418;2023-07-24T13:08:31;0.40;;;0.40;;
62353;SDS011;48391;49.184;2.418;2023-07-24T13:10:57;0.90;;;0.20;;
62353;SDS011;48391;49.184;2.418;2023-07-24T13:13:23;0.30;;;0.30;;
62353;SDS011;48391;49.184;2.418;2023-07-24T13:15:49;0.60;;;0.50;;
62353;SDS011;48391;49.184;2.418;2023-07-24T13:18:16;0.32;;;0.30;;
62353;SDS011;48391;49.184;2.418;2023-07-24T13:20:45;0.53;;;0.37;;
62353;SDS011;48391;49.184;2.418;2023-07-24T13:23:11;0.60;;;0.40;;
62353;SDS011;48391;49.184;2.418;2023-07-24T13:25:37;0.43;;;0.43;;
62353;SDS011;48391;49.184;2.418;2023-07-24T13:28:03;0.60;;;0.47;;
62353;SDS011;48391;49.184;2.418;2023-07-24T13:30:29;0.30;;;0.30;;
62353;SDS011;48391;49.184;2.418;2023-07-24T13:32:55;0.85;;;0.43;;
62353;SDS011;48391;49.184;2.418;2023-07-24T13:35:21;0.30;;;0.30;;
62353;SDS011;48391;49.184;2.418;2023-07-24T13:37:47;0.20;;;0.20;;
62353;SDS011;48391;49.184;2.418;2023-07-24T13:40:13;0.98;;;0.50;;
62353;SDS011;48391;49.184;2.418;2023-07-24T13:42:40;0.60;;;0.20;;
62353;SDS011;48391;49.184;2.418;2023-07-24T13:45:06;0.25;;;0.25;;
62353;SDS011;48391;49.184;2.418;2023-07-24T13:47:32;0.47;;;0.40;;
62353;SDS011;48391;49.184;2.418;2023-07-24T13:49:59;1.10;;;0.50;;
62353;SDS011;48391;49.184;2.418;2023-07-24T13:52:28;0.85;;;0.60;;
62353;SDS011;48391;49.184;2.418;2023-07-24T13:54:55;1.48;;;0.68;;
62353;SDS011;48391;49.184;2.418;2023-07-24T13:57:21;0.50;;;0.50;;
62353;SDS011;48391;49.184;2.418;2023-07-24T13:59:48;0.20;;;0.20;;
62353;SDS011;48391;49.184;2.418;2023-07-24T14:02:14;0.77;;;0.35;;
62353;SDS011;48391;49.184;2.418;2023-07-24T14:04:40;0.85;;;0.10;;
62353;SDS011;48391;49.184;2.418;2023-07-24T14:07:06;0.30;;;0.20;;
62353;SDS011;48391;49.184;2.418;2023-07-24T14:09:32;0.22;;;0.22;;
62353;SDS011;48391;49.184;2.418;2023-07-24T14:11:59;0.52;;;0.28;;
62353;SDS011;48391;49.184;2.418;2023-07-24T14:14:26;0.20;;;0.20;;
62353;SDS011;48391;49.184;2.418;2023-07-24T14:16:52;0.70;;;0.35;;
62353;SDS011;48391;49.184;2.418;2023-07-24T14:19:18;0.40;;;0.30;;
62353;SDS011;48391;49.184;2.418;2023-07-24T14:21:44;0.90;;;0.65;;
62353;SDS011;48391;49.184;2.418;2023-07-24T14:24:10;2.75;;;0.45;;
62353;SDS011;48391;49.184;2.418;2023-07-24T14:26:36;0.47;;;0.47;;
62353;SDS011;48391;49.184;2.418;2023-07-24T14:29:03;0.38;;;0.10;;
62353;SDS011;48391;49.184;2.418;2023-07-24T14:31:29;0.65;;;0.65;;
62353;SDS011;48391;49.184;2.418;2023-07-24T14:33:55;0.13;;;0.13;;
62353;SDS011;48391;49.184;2.418;2023-07-24T14:36:21;0.82;;;0.40;;
62353;SDS011;48391;49.184;2.418;2023-07-24T14:38:47;0.10;;;0.10;;
62353;SDS011;48391;49.184;2.418;2023-07-24T14:41:14;0.30;;;0.13;;
62353;SDS011;48391;49.184;2.418;2023-07-24T14:43:40;0.25;;;0.20;;
62353;SDS011;48391;49.184;2.418;2023-07-24T14:46:06;0.10;;;0.10;;
62353;SDS011;48391;49.184;2.418;2023-07-24T14:48:32;0.75;;;0.40;;
62353;SDS011;48391;49.184;2.418;2023-07-24T14:50:58;0.38;;;0.03;;
62353;SDS011;48391;49.184;2.418;2023-07-24T14:53:24;0.10;;;0.10;;
62353;SDS011;48391;49.184;2.418;2023-07-24T14:55:50;0.10;;;0.00;;
62353;SDS011;48391;49.184;2.418;2023-07-24T14:58:16;3.30;;;0.30;;
62353;SDS011;48391;49.184;2.418;2023-07-24T15:00:42;0.30;;;0.10;;
62353;SDS011;48391;49.184;2.418;2023-07-24T15:03:08;0.20;;;0.20;;
62353;SDS011;48391;49.184;2.418;2023-07-24T15:05:35;0.10;;;0.10;;
62353;SDS011;48391;49.184;2.418;2023-07-24T15:08:01;0.28;;;0.10;;
62353;SDS011;48391;49.184;2.418;2023-07-24T15:10:30;0.57;;;0.10;;
62353;SDS011;48391;49.184;2.418;2023-07-24T15:12:56;0.10;;;0.10;;
62353;SDS011;48391;49.184;2.418;2023-07-24T15:15:22;0.45;;;0.20;;
62353;SDS011;48391;49.184;2.418;2023-07-24T15:17:48;0.30;;;0.10;;
62353;SDS011;48391;49.184;2.418;2023-07-24T15:20:14;0.63;;;0.32;;
62353;SDS011;48391;49.184;2.418;2023-07-24T15:22:40;0.15;;;0.15;;
62353;SDS011;48391;49.184;2.418;2023-07-24T15:25:06;0.63;;;0.32;;
62353;SDS011;48391;49.184;2.418;2023-07-24T15:27:33;0.57;;;0.10;;
62353;SDS011;48391;49.184;2.418;2023-07-24T15:29:59;0.25;;;0.17;;
62353;SDS011;48391;49.184;2.418;2023-07-24T15:32:25;0.60;;;0.17;;
62353;SDS011;48391;49.184;2.418;2023-07-24T15:34:51;0.10;;;0.00;;
62353;SDS011;48391;49.184;2.418;2023-07-24T15:37:17;0.00;;;0.00;;
62353;SDS011;48391;49.184;2.418;2023-07-24T15:39:43;0.22;;;0.22;;
62353;SDS011;48391;49.184;2.418;2023-07-24T15:42:09;0.10;;;0.00;;
62353;SDS011;48391;49.184;2.418;2023-07-24T15:44:35;0.08;;;0.00;;
62353;SDS011;48391;49.184;2.418;2023-07-24T15:47:01;0.40;;;0.10;;
62353;SDS011;48391;49.184;2.418;2023-07-24T15:49:27;0.25;;;0.00;;
62353;SDS011;48391;49.184;2.418;2023-07-24T15:51:53;0.05;;;0.05;;
62353;SDS011;48391;49.184;2.418;2023-07-24T15:54:19;0.13;;;0.00;;
62353;SDS011;48391;49.184;2.418;2023-07-24T15:56:48;0.00;;;0.00;;
62353;SDS011;48391;49.184;2.418;2023-07-24T15:59:14;0.15;;;0.00;;
62353;SDS011;48391;49.184;2.418;2023-07-24T16:01:40;0.20;;;0.00;;
62353;SDS011;48391;49.184;2.418;2023-07-24T16:04:06;0.00;;;0.00;;
62353;SDS011;48391;49.184;2.418;2023-07-24T16:06:33;0.10;;;0.00;;
62353;SDS011;48391;49.184;2.418;2023-07-24T16:08:59;0.00;;;0.00;;
62353;SDS011;48391;49.184;2.418;2023-07-24T16:11:26;0.00;;;0.00;;
62353;SDS011;48391;49.184;2.418;2023-07-24T16:13:52;0.00;;;0.00;;
62353;SDS011;48391;49.184;2.418;2023-07-24T16:16:18;0.00;;;0.00;;
62353;SDS011;48391;49.184;2.418;2023-07-24T16:18:45;0.05;;;0.05;;
62353;SDS011;48391;49.184;2.418;2023-07-24T16:21:11;0.20;;;0.00;;
62353;SDS011;48391;49.184;2.418;2023-07-24T16:23:38;0.90;;;0.13;;
62353;SDS011;48391;49.184;2.418;2023-07-24T16:26:05;0.20;;;0.08;;
62353;SDS011;48391;49.184;2.418;2023-07-24T16:28:31;0.22;;;0.00;;
62353;SDS011;48391;49.184;2.418;2023-07-24T16:30:58;0.00;;;0.00;;
62353;SDS011;48391;49.184;2.418;2023-07-24T16:33:24;0.08;;;0.00;;
62353;SDS011;48391;49.184;2.418;2023-07-24T16:35:52;0.00;;;0.00;;
62353;SDS011;48391;49.184;2.418;2023-07-24T16:38:18;0.10;;;0.05;;
62353;SDS011;48391;49.184;2.418;2023-07-24T16:40:45;0.15;;;0.10;;
62353;SDS011;48391;49.184;2.418;2023-07-24T16:43:12;0.00;;;0.00;;
62353;SDS011;48391;49.184;2.418;2023-07-24T16:45:39;0.00;;;0.00;;
62353;SDS011;48391;49.184;2.418;2023-07-24T16:48:05;0.13;;;0.00;;
62353;SDS011;48391;49.184;2.418;2023-07-24T16:50:32;0.00;;;0.00;;
62353;SDS011;48391;49.184;2.418;2023-07-24T16:53:00;0.10;;;0.00;;
62353;SDS011;48391;49.184;2.418;2023-07-24T16:55:27;0.00;;;0.00;;
62353;SDS011;48391;49.184;2.418;2023-07-24T16:57:53;0.00;;;0.00;;
62353;SDS011;48391;49.184;2.418;2023-07-24T17:00:19;0.00;;;0.00;;
62353;SDS011;48391;49.184;2.418;2023-07-24T17:02:46;0.00;;;0.00;;
62353;SDS011;48391;49.184;2.418;2023-07-24T17:05:13;0.22;;;0.10;;
62353;SDS011;48391;49.184;2.418;2023-07-24T17:07:40;0.00;;;0.00;;
62353;SDS011;48391;49.184;2.418;2023-07-24T17:10:09;0.08;;;0.00;;
62353;SDS011;48391;49.184;2.418;2023-07-24T17:12:36;0.00;;;0.00;;
62353;SDS011;48391;49.184;2.418;2023-07-24T17:15:02;0.00;;;0.00;;
62353;SDS011;48391;49.184;2.418;2023-07-24T17:17:29;0.00;;;0.00;;
62353;SDS011;48391;49.184;2.418;2023-07-24T17:19:55;0.00;;;0.00;;
62353;SDS011;48391;49.184;2.418;2023-07-24T17:22:21;0.00;;;0.00;;
62353;SDS011;48391;49.184;2.418;2023-07-24T17:24:48;0.00;;;0.00;;
62353;SDS011;48391;49.184;2.418;2023-07-24T17:27:14;0.00;;;0.00;;
62353;SDS011;48391;49.184;2.418;2023-07-24T17:29:40;0.20;;;0.00;;
62353;SDS011;48391;49.184;2.418;2023-07-24T17:32:07;0.05;;;0.00;;
62353;SDS011;48391;49.184;2.418;2023-07-24T17:34:33;0.03;;;0.03;;
62353;SDS011;48391;49.184;2.418;2023-07-24T17:37:00;0.10;;;0.10;;
62353;SDS011;48391;49.184;2.418;2023-07-24T17:39:27;0.20;;;0.10;;
62353;SDS011;48391;49.184;2.418;2023-07-24T17:41:53;0.00;;;0.00;;
62353;SDS011;48391;49.184;2.418;2023-07-24T17:44:19;0.00;;;0.00;;
62353;SDS011;48391;49.184;2.418;2023-07-24T17:46:46;0.00;;;0.00;;
62353;SDS011;48391;49.184;2.418;2023-07-24T17:49:13;0.00;;;0.00;;
62353;SDS011;48391;49.184;2.418;2023-07-24T17:51:42;0.10;;;0.10;;
62353;SDS011;48391;49.184;2.418;2023-07-24T17:54:09;0.40;;;0.00;;
62353;SDS011;48391;49.184;2.418;2023-07-24T17:56:35;0.38;;;0.00;;
62353;SDS011;48391;49.184;2.418;2023-07-24T17:59:02;0.05;;;0.05;;
62353;SDS011;48391;49.184;2.418;2023-07-24T18:01:29;0.20;;;0.00;;
62353;SDS011;48391;49.184;2.418;2023-07-24T18:03:55;0.00;;;0.00;;
62353;SDS011;48391;49.184;2.418;2023-07-24T18:06:22;0.40;;;0.10;;
62353;SDS011;48391;49.184;2.418;2023-07-24T18:08:48;0.00;;;0.00;;
62353;SDS011;48391;49.184;2.418;2023-07-24T18:11:14;0.10;;;0.10;;
62353;SDS011;48391;49.184;2.418;2023-07-24T18:13:41;0.00;;;0.00;;
62353;SDS011;48391;49.184;2.418;2023-07-24T18:16:07;0.00;;;0.00;;
62353;SDS011;48391;49.184;2.418;2023-07-24T18:18:34;0.20;;;0.20;;
62353;SDS011;48391;49.184;2.418;2023-07-24T18:21:00;0.10;;;0.00;;
62353;SDS011;48391;49.184;2.418;2023-07-24T18:23:30;0.10;;;0.10;;
62353;SDS011;48391;49.184;2.418;2023-07-24T18:25:56;0.10;;;0.10;;
62353;SDS011;48391;49.184;2.418;2023-07-24T18:28:22;0.22;;;0.00;;
62353;SDS011;48391;49.184;2.418;2023-07-24T18:30:49;0.10;;;0.10;;
62353;SDS011;48391;49.184;2.418;2023-07-24T18:33:15;0.00;;;0.00;;
62353;SDS011;48391;49.184;2.418;2023-07-24T18:35:42;0.00;;;0.00;;
62353;SDS011;48391;49.184;2.418;2023-07-24T18:38:11;0.15;;;0.15;;
62353;SDS011;48391;49.184;2.418;2023-07-24T18:40:38;0.38;;;0.05;;
62353;SDS011;48391;49.184;2.418;2023-07-24T18:43:04;0.00;;;0.00;;
62353;SDS011;48391;49.184;2.418;2023-07-24T18:45:30;0.10;;;0.00;;
62353;SDS011;48391;49.184;2.418;2023-07-24T18:47:56;0.22;;;0.00;;
62353;SDS011;48391;49.184;2.418;2023-07-24T18:50:24;0.08;;;0.08;;
62353;SDS011;48391;49.184;2.418;2023-07-24T18:52:50;0.00;;;0.00;;
62353;SDS011;48391;49.184;2.418;2023-07-24T18:55:16;0.03;;;0.00;;
62353;SDS011;48391;49.184;2.418;2023-07-24T18:57:42;0.00;;;0.00;;
62353;SDS011;48391;49.184;2.418;2023-07-24T19:00:08;0.00;;;0.00;;
62353;SDS011;48391;49.184;2.418;2023-07-24T19:02:34;0.00;;;0.00;;
62353;SDS011;48391;49.184;2.418;2023-07-24T19:05:00;0.10;;;0.10;;
62353;SDS011;48391;49.184;2.418;2023-07-24T19:07:26;0.10;;;0.00;;
62353;SDS011;48391;49.184;2.418;2023-07-24T19:09:52;0.20;;;0.00;;
62353;SDS011;48391;49.184;2.418;2023-07-24T19:12:19;0.00;;;0.00;;
62353;SDS011;48391;49.184;2.418;2023-07-24T19:14:45;0.00;;;0.00;;